sensor_id;sensor_type;location;lat;lon;timestamp;pressure;altitude;pressure_sealevel;temperature;humidity
16194;BME280;8204;53.582;10.080;2023-08-06T00:00:11;99510.53;;;20.09;100.00
16194;BME280;8204;53.582;10.080;2023-08-06T00:02:38;99494.56;;;20.09;100.00
16194;BME280;8204;53.582;10.080;2023-08-06T00:05:04;99515.31;;;20.07;100.00
16194;BME280;8204;53.582;10.080;2023-08-06T00:07:30;99507.88;;;20.09;100.00
16194;BME280;8204;53.582;10.080;2023-08-06T00:09:55;99520.06;;;20.05;100.00
16194;BME280;8204;53.582;10.080;2023-08-06T00:12:21;99536.03;;;20.05;100.00
16194;BME280;8204;53.582;10.080;2023-08-06T00:14:50;99471.63;;;20.03;100.00
16194;BME280;8204;53.582;10.080;2023-08-06T00:17:16;99430.69;;;20.04;100.00
16194;BME280;8204;53.582;10.080;2023-08-06T00:19:43;99443.44;;;20.02;100.00
16194;BME280;8204;53.582;10.080;2023-08-06T00:22:08;99409.94;;;20.01;100.00
16194;BME280;8204;53.582;10.080;2023-08-06T00:24:34;99408.84;;;20.02;100.00
16194;BME280;8204;53.582;10.080;2023-08-06T00:27:00;99375.38;;;20.01;100.00
16194;BME280;8204;53.582;10.080;2023-08-06T00:29:26;99360.47;;;20.00;100.00
16194;BME280;8204;53.582;10.080;2023-08-06T00:31:51;99321.63;;;19.99;100.00
16194;BME280;8204;53.582;10.080;2023-08-06T00:34:16;99292.38;;;19.99;100.00
16194;BME280;8204;53.582;10.080;2023-08-06T00:36:41;99287.03;;;19.99;100.00
16194;BME280;8204;53.582;10.080;2023-08-06T00:39:07;99295.03;;;19.99;100.00
16194;BME280;8204;53.582;10.080;2023-08-06T00:41:33;99304.31;;;19.97;100.00
16194;BME280;8204;53.582;10.080;2023-08-06T00:43:58;99280.59;;;19.95;100.00
16194;BME280;8204;53.582;10.080;2023-08-06T00:46:24;99272.09;;;19.93;100.00
16194;BME280;8204;53.582;10.080;2023-08-06T00:48:50;99286.41;;;19.92;100.00
16194;BME280;8204;53.582;10.080;2023-08-06T00:51:16;99286.69;;;19.91;100.00
16194;BME280;8204;53.582;10.080;2023-08-06T00:53:42;99258.47;;;19.90;100.00
16194;BME280;8204;53.582;10.080;2023-08-06T00:56:08;99273.63;;;19.89;100.00
16194;BME280;8204;53.582;10.080;2023-08-06T00:58:35;99237.47;;;19.88;100.00
16194;BME280;8204;53.582;10.080;2023-08-06T01:01:01;99219.34;;;19.85;100.00
16194;BME280;8204;53.582;10.080;2023-08-06T01:03:27;99192.78;;;19.85;100.00
16194;BME280;8204;53.582;10.080;2023-08-06T01:05:54;99206.84;;;19.86;100.00
16194;BME280;8204;53.582;10.080;2023-08-06T01:13:50;99194.34;;;19.81;100.00
16194;BME280;8204;53.582;10.080;2023-08-06T01:16:20;99206.03;;;19.80;100.00
16194;BME280;8204;53.582;10.080;2023-08-06T01:18:49;99213.47;;;19.78;100.00
16194;BME280;8204;53.582;10.080;2023-08-06T01:21:18;99210.25;;;19.77;100.00
16194;BME280;8204;53.582;10.080;2023-08-06T01:23:44;99188.19;;;19.76;100.00
16194;BME280;8204;53.582;10.080;2023-08-06T01:26:30;99182.06;;;19.76;100.00
16194;BME280;8204;53.582;10.080;2023-08-06T01:29:54;99180.47;;;19.75;100.00
16194;BME280;8204;53.582;10.080;2023-08-06T01:32:10;99152.78;;;19.71;100.00
16194;BME280;8204;53.582;10.080;2023-08-06T01:34:39;99154.91;;;19.69;100.00
16194;BME280;8204;53.582;10.080;2023-08-06T01:37:06;99152.50;;;19.67;100.00
16194;BME280;8204;53.582;10.080;2023-08-06T01:39:35;99157.81;;;19.67;100.00
16194;BME280;8204;53.582;10.080;2023-08-06T01:42:02;99159.13;;;19.65;100.00
16194;BME280;8204;53.582;10.080;2023-08-06T01:44:28;99156.72;;;19.63;100.00
16194;BME280;8204;53.582;10.080;2023-08-06T01:46:54;99160.16;;;19.64;100.00
16194;BME280;8204;53.582;10.080;2023-08-06T01:49:19;99177.16;;;19.63;100.00
16194;BME280;8204;53.582;10.080;2023-08-06T01:51:45;99142.88;;;19.61;100.00
16194;BME280;8204;53.582;10.080;2023-08-06T01:54:11;99130.66;;;19.60;100.00
16194;BME280;8204;53.582;10.080;2023-08-06T01:56:37;99127.47;;;19.58;100.00
16194;BME280;8204;53.582;10.080;2023-08-06T01:59:02;99135.16;;;19.60;100.00
16194;BME280;8204;53.582;10.080;2023-08-06T02:01:28;99119.72;;;19.57;100.00
16194;BME280;8204;53.582;10.080;2023-08-06T02:03:54;99108.00;;;19.53;100.00
16194;BME280;8204;53.582;10.080;2023-08-06T02:06:20;99099.00;;;19.54;100.00
16194;BME280;8204;53.582;10.080;2023-08-06T02:08:46;99100.84;;;19.53;100.00
16194;BME280;8204;53.582;10.080;2023-08-06T02:11:11;99106.41;;;19.52;100.00
16194;BME280;8204;53.582;10.080;2023-08-06T02:13:37;99117.03;;;19.52;100.00
16194;BME280;8204;53.582;10.080;2023-08-06T02:16:03;99105.84;;;19.50;100.00
16194;BME280;8204;53.582;10.080;2023-08-06T02:18:28;99129.25;;;19.48;100.00
16194;BME280;8204;53.582;10.080;2023-08-06T02:20:58;99134.00;;;19.46;100.00
16194;BME280;8204;53.582;10.080;2023-08-06T02:23:24;99144.63;;;19.46;100.00
16194;BME280;8204;53.582;10.080;2023-08-06T02:26:00;99147.81;;;19.43;100.00
16194;BME280;8204;53.582;10.080;2023-08-06T02:28:25;99136.63;;;19.41;100.00
16194;BME280;8204;53.582;10.080;2023-08-06T02:30:51;99138.72;;;19.39;100.00
16194;BME280;8204;53.582;10.080;2023-08-06T02:33:17;99131.81;;;19.38;100.00
16194;BME280;8204;53.582;10.080;2023-08-06T02:35:42;99130.19;;;19.37;100.00
16194;BME280;8204;53.582;10.080;2023-08-06T02:38:07;99119.03;;;19.35;100.00
16194;BME280;8204;53.582;10.080;2023-08-06T02:40:33;99122.75;;;19.34;100.00
16194;BME280;8204;53.582;10.080;2023-08-06T02:42:59;99119.53;;;19.32;100.00
16194;BME280;8204;53.582;10.080;2023-08-06T02:45:24;99125.09;;;19.30;100.00
16194;BME280;8204;53.582;10.080;2023-08-06T02:47:49;99121.09;;;19.28;100.00
16194;BME280;8204;53.582;10.080;2023-08-06T02:50:15;99116.06;;;19.26;100.00
16194;BME280;8204;53.582;10.080;2023-08-06T02:52:40;99110.44;;;19.23;100.00
16194;BME280;8204;53.582;10.080;2023-08-06T02:55:06;99100.88;;;19.22;100.00
16194;BME280;8204;53.582;10.080;2023-08-06T02:57:32;99083.34;;;19.21;100.00
16194;BME280;8204;53.582;10.080;2023-08-06T02:59:58;99088.91;;;19.19;100.00
16194;BME280;8204;53.582;10.080;2023-08-06T03:02:23;99088.09;;;19.19;100.00
16194;BME280;8204;53.582;10.080;2023-08-06T03:04:48;99084.88;;;19.17;100.00
16194;BME280;8204;53.582;10.080;2023-08-06T03:07:14;99076.13;;;19.16;100.00
16194;BME280;8204;53.582;10.080;2023-08-06T03:09:39;99071.34;;;19.13;100.00
16194;BME280;8204;53.582;10.080;2023-08-06T03:12:06;99070.50;;;19.13;100.00
16194;BME280;8204;53.582;10.080;2023-08-06T03:14:31;99058.28;;;19.12;100.00
16194;BME280;8204;53.582;10.080;2023-08-06T03:16:56;99055.91;;;19.10;100.00
16194;BME280;8204;53.582;10.080;2023-08-06T03:19:22;99056.94;;;19.09;100.00
16194;BME280;8204;53.582;10.080;2023-08-06T03:21:47;99058.00;;;19.08;100.00
16194;BME280;8204;53.582;10.080;2023-08-06T03:24:13;99065.63;;;19.05;100.00
16194;BME280;8204;53.582;10.080;2023-08-06T03:26:39;99063.50;;;19.02;100.00
16194;BME280;8204;53.582;10.080;2023-08-06T03:29:05;99073.31;;;19.02;100.00
16194;BME280;8204;53.582;10.080;2023-08-06T03:31:30;99093.75;;;19.01;100.00
16194;BME280;8204;53.582;10.080;2023-08-06T03:33:56;99105.16;;;19.02;100.00
16194;BME280;8204;53.582;10.080;2023-08-06T03:36:21;99098.50;;;18.99;100.00
16194;BME280;8204;53.582;10.080;2023-08-06T03:38:47;99086.78;;;18.95;100.00
16194;BME280;8204;53.582;10.080;2023-08-06T03:41:12;99100.84;;;18.96;100.00
16194;BME280;8204;53.582;10.080;2023-08-06T03:43:37;99108.28;;;18.94;100.00
16194;BME280;8204;53.582;10.080;2023-08-06T03:46:03;99113.84;;;18.92;100.00
16194;BME280;8204;53.582;10.080;2023-08-06T03:48:28;99095.50;;;18.91;100.00
16194;BME280;8204;53.582;10.080;2023-08-06T03:50:54;99094.72;;;18.90;100.00
16194;BME280;8204;53.582;10.080;2023-08-06T03:53:20;99104.78;;;18.88;100.00
16194;BME280;8204;53.582;10.080;2023-08-06T03:55:45;99107.44;;;18.88;100.00
16194;BME280;8204;53.582;10.080;2023-08-06T03:58:10;99111.66;;;18.84;100.00
16194;BME280;8204;53.582;10.080;2023-08-06T04:00:36;99112.69;;;18.83;100.00
16194;BME280;8204;53.582;10.080;2023-08-06T04:03:01;99122.50;;;18.83;100.00
16194;BME280;8204;53.582;10.080;2023-08-06T04:05:27;99113.19;;;18.80;100.00
16194;BME280;8204;53.582;10.080;2023-08-06T04:07:53;99104.66;;;18.78;100.00
16194;BME280;8204;53.582;10.080;2023-08-06T04:10:18;99114.50;;;18.78;100.00
16194;BME280;8204;53.582;10.080;2023-08-06T04:12:43;99129.06;;;18.75;100.00
16194;BME280;8204;53.582;10.080;2023-08-06T04:15:09;99126.09;;;18.72;100.00
16194;BME280;8204;53.582;10.080;2023-08-06T04:17:35;99130.59;;;18.71;100.00
16194;BME280;8204;53.582;10.080;2023-08-06T04:20:00;99142.28;;;18.70;100.00
16194;BME280;8204;53.582;10.080;2023-08-06T04:22:27;99149.69;;;18.68;100.00
16194;BME280;8204;53.582;10.080;2023-08-06T04:24:52;99142.22;;;18.65;100.00
16194;BME280;8204;53.582;10.080;2023-08-06T04:27:19;99150.16;;;18.65;100.00
16194;BME280;8204;53.582;10.080;2023-08-06T04:29:44;99139.03;;;18.63;100.00
16194;BME280;8204;53.582;10.080;2023-08-06T04:32:10;99136.59;;;18.62;100.00
16194;BME280;8204;53.582;10.080;2023-08-06T04:34:36;99137.66;;;18.61;100.00
16194;BME280;8204;53.582;10.080;2023-08-06T04:37:04;99148.50;;;18.59;100.00
16194;BME280;8204;53.582;10.080;2023-08-06T04:39:30;99138.94;;;18.58;100.00
16194;BME280;8204;53.582;10.080;2023-08-06T04:41:58;99120.88;;;18.55;100.00
16194;BME280;8204;53.582;10.080;2023-08-06T04:44:23;99113.97;;;18.54;100.00
16194;BME280;8204;53.582;10.080;2023-08-06T04:46:49;99115.56;;;18.55;100.00
16194;BME280;8204;53.582;10.080;2023-08-06T04:49:15;99097.50;;;18.52;100.00
16194;BME280;8204;53.582;10.080;2023-08-06T04:51:41;99085.53;;;18.50;100.00
16194;BME280;8204;53.582;10.080;2023-08-06T04:54:06;99078.63;;;18.49;100.00
16194;BME280;8204;53.582;10.080;2023-08-06T04:56:32;99059.25;;;18.48;100.00
16194;BME280;8204;53.582;10.080;2023-08-06T04:58:58;99059.25;;;18.48;100.00
16194;BME280;8204;53.582;10.080;2023-08-06T05:01:24;99059.25;;;18.48;100.00
16194;BME280;8204;53.582;10.080;2023-08-06T05:03:50;99042.56;;;18.48;100.00
16194;BME280;8204;53.582;10.080;2023-08-06T05:06:15;99034.03;;;18.46;100.00
16194;BME280;8204;53.582;10.080;2023-08-06T05:08:41;99045.44;;;18.46;100.00
16194;BME280;8204;53.582;10.080;2023-08-06T05:11:06;99033.22;;;18.45;100.00
16194;BME280;8204;53.582;10.080;2023-08-06T05:13:32;99019.94;;;18.45;100.00
16194;BME280;8204;53.582;10.080;2023-08-06T05:15:58;99017.31;;;18.45;100.00
16194;BME280;8204;53.582;10.080;2023-08-06T05:18:23;99035.09;;;18.45;100.00
16194;BME280;8204;53.582;10.080;2023-08-06T05:20:49;99027.13;;;18.45;100.00
16194;BME280;8204;53.582;10.080;2023-08-06T05:23:15;99019.16;;;18.45;100.00
16194;BME280;8204;53.582;10.080;2023-08-06T05:25:40;98998.72;;;18.45;100.00
16194;BME280;8204;53.582;10.080;2023-08-06T05:28:06;98993.19;;;18.47;100.00
16194;BME280;8204;53.582;10.080;2023-08-06T05:30:31;98980.72;;;18.47;100.00
16194;BME280;8204;53.582;10.080;2023-08-06T05:32:57;98961.13;;;18.48;100.00
16194;BME280;8204;53.582;10.080;2023-08-06T05:35:22;98972.50;;;18.49;100.00
16194;BME280;8204;53.582;10.080;2023-08-06T05:37:48;98982.06;;;18.50;100.00
16194;BME280;8204;53.582;10.080;2023-08-06T05:40:15;98965.94;;;18.51;100.00
16194;BME280;8204;53.582;10.080;2023-08-06T05:42:41;98963.81;;;18.53;100.00
16194;BME280;8204;53.582;10.080;2023-08-06T05:45:07;98960.88;;;18.55;100.00
16194;BME280;8204;53.582;10.080;2023-08-06T05:47:32;98947.63;;;18.55;100.00
16194;BME280;8204;53.582;10.080;2023-08-06T05:49:57;98953.22;;;18.58;100.00
16194;BME280;8204;53.582;10.080;2023-08-06T05:52:23;98933.59;;;18.59;100.00
16194;BME280;8204;53.582;10.080;2023-08-06T05:54:49;98929.63;;;18.62;100.00
16194;BME280;8204;53.582;10.080;2023-08-06T05:57:14;98908.97;;;18.64;100.00
16194;BME280;8204;53.582;10.080;2023-08-06T05:59:40;98897.31;;;18.65;100.00
16194;BME280;8204;53.582;10.080;2023-08-06T06:02:06;98894.41;;;18.66;100.00
16194;BME280;8204;53.582;10.080;2023-08-06T06:04:32;98901.31;;;18.67;100.00
16194;BME280;8204;53.582;10.080;2023-08-06T06:06:57;98899.47;;;18.68;100.00
16194;BME280;8204;53.582;10.080;2023-08-06T06:09:23;98901.31;;;18.67;100.00
16194;BME280;8204;53.582;10.080;2023-08-06T06:11:48;98923.34;;;18.68;100.00
16194;BME280;8204;53.582;10.080;2023-08-06T06:14:16;98924.94;;;18.69;100.00
16194;BME280;8204;53.582;10.080;2023-08-06T06:16:41;98946.97;;;18.69;100.00
16194;BME280;8204;53.582;10.080;2023-08-06T06:19:07;98944.31;;;18.69;100.00
16194;BME280;8204;53.582;10.080;2023-08-06T06:21:32;98932.66;;;18.70;100.00
16194;BME280;8204;53.582;10.080;2023-08-06T06:23:58;98915.66;;;18.71;100.00
16194;BME280;8204;53.582;10.080;2023-08-06T06:26:24;98925.78;;;18.74;100.00
16194;BME280;8204;53.582;10.080;2023-08-06T06:28:50;98928.44;;;18.74;100.00
16194;BME280;8204;53.582;10.080;2023-08-06T06:31:15;98944.91;;;18.76;100.00
16194;BME280;8204;53.582;10.080;2023-08-06T06:33:41;98964.81;;;18.79;100.00
16194;BME280;8204;53.582;10.080;2023-08-06T06:36:07;98979.44;;;18.81;100.00
16194;BME280;8204;53.582;10.080;2023-08-06T06:38:33;98962.72;;;18.81;100.00
16194;BME280;8204;53.582;10.080;2023-08-06T06:40:59;98975.47;;;18.84;100.00
16194;BME280;8204;53.582;10.080;2023-08-06T06:43:25;98984.25;;;18.84;100.00
16194;BME280;8204;53.582;10.080;2023-08-06T06:45:58;98999.38;;;18.89;100.00
16194;BME280;8204;53.582;10.080;2023-08-06T06:48:26;99003.38;;;18.91;100.00
16194;BME280;8204;53.582;10.080;2023-08-06T06:50:52;99015.38;;;18.94;100.00
16194;BME280;8204;53.582;10.080;2023-08-06T06:53:18;99002.41;;;18.97;100.00
16194;BME280;8204;53.582;10.080;2023-08-06T06:55:44;98983.03;;;19.02;100.00
16194;BME280;8204;53.582;10.080;2023-08-06T06:58:10;98959.69;;;19.03;100.00
16194;BME280;8204;53.582;10.080;2023-08-06T07:00:36;98945.66;;;19.08;100.00
16194;BME280;8204;53.582;10.080;2023-08-06T07:03:03;98977.03;;;19.11;100.00
16194;BME280;8204;53.582;10.080;2023-08-06T07:05:28;98956.88;;;19.15;100.00
16194;BME280;8204;53.582;10.080;2023-08-06T07:07:54;98940.41;;;19.18;100.00
16194;BME280;8204;53.582;10.080;2023-08-06T07:10:19;98934.34;;;19.22;100.00
16194;BME280;8204;53.582;10.080;2023-08-06T07:12:45;98919.50;;;19.26;100.00
16194;BME280;8204;53.582;10.080;2023-08-06T07:15:11;98937.84;;;19.33;100.00
16194;BME280;8204;53.582;10.080;2023-08-06T07:17:37;98940.53;;;19.38;100.00
16194;BME280;8204;53.582;10.080;2023-08-06T07:20:03;98930.75;;;19.43;100.00
16194;BME280;8204;53.582;10.080;2023-08-06T07:22:29;98922.53;;;19.50;100.00
16194;BME280;8204;53.582;10.080;2023-08-06T07:24:55;98931.31;;;19.55;100.00
16194;BME280;8204;53.582;10.080;2023-08-06T07:27:20;98958.72;;;19.61;100.00
16194;BME280;8204;53.582;10.080;2023-08-06T07:29:45;98959.78;;;19.65;100.00
16194;BME280;8204;53.582;10.080;2023-08-06T07:32:11;98968.34;;;19.72;100.00
16194;BME280;8204;53.582;10.080;2023-08-06T07:34:37;98990.66;;;19.76;100.00
16194;BME280;8204;53.582;10.080;2023-08-06T07:37:02;99035.34;;;19.78;100.00
16194;BME280;8204;53.582;10.080;2023-08-06T07:39:28;99075.78;;;19.80;100.00
16194;BME280;8204;53.582;10.080;2023-08-06T07:41:54;99060.34;;;19.82;100.00
16194;BME280;8204;53.582;10.080;2023-08-06T07:44:19;99107.69;;;19.85;100.00
16194;BME280;8204;53.582;10.080;2023-08-06T07:46:45;99084.31;;;19.87;100.00
16194;BME280;8204;53.582;10.080;2023-08-06T07:49:11;99054.81;;;19.89;100.00
16194;BME280;8204;53.582;10.080;2023-08-06T07:51:37;99033.28;;;19.90;100.00
16194;BME280;8204;53.582;10.080;2023-08-06T07:54:02;99012.56;;;19.92;100.00
16194;BME280;8204;53.582;10.080;2023-08-06T07:56:29;99034.41;;;19.94;100.00
16194;BME280;8204;53.582;10.080;2023-08-06T07:58:54;99019.53;;;19.98;100.00
16194;BME280;8204;53.582;10.080;2023-08-06T08:01:20;99046.66;;;20.00;100.00
16194;BME280;8204;53.582;10.080;2023-08-06T08:03:45;99051.16;;;20.00;100.00
16194;BME280;8204;53.582;10.080;2023-08-06T08:06:11;99049.31;;;20.00;100.00
16194;BME280;8204;53.582;10.080;2023-08-06T08:08:36;99058.09;;;20.01;100.00
16194;BME280;8204;53.582;10.080;2023-08-06T08:11:04;99048.25;;;20.01;100.00
16194;BME280;8204;53.582;10.080;2023-08-06T08:13:29;99045.84;;;20.00;100.00
16194;BME280;8204;53.582;10.080;2023-08-06T08:15:58;99061.56;;;20.01;100.00
16194;BME280;8204;53.582;10.080;2023-08-06T08:18:25;99057.81;;;20.02;100.00
16194;BME280;8204;53.582;10.080;2023-08-06T08:20:51;99081.75;;;20.02;100.00
16194;BME280;8204;53.582;10.080;2023-08-06T08:23:16;99084.19;;;20.04;100.00
16194;BME280;8204;53.582;10.080;2023-08-06T08:25:42;99068.22;;;20.04;100.00
16194;BME280;8204;53.582;10.080;2023-08-06T08:28:08;99096.38;;;20.05;100.00
16194;BME280;8204;53.582;10.080;2023-08-06T08:30:34;99100.41;;;20.07;100.00
16194;BME280;8204;53.582;10.080;2023-08-06T08:33:01;99086.84;;;20.09;100.00
16194;BME280;8204;53.582;10.080;2023-08-06T08:35:27;99076.50;;;20.12;100.00
16194;BME280;8204;53.582;10.080;2023-08-06T08:37:53;99058.94;;;20.16;100.00
16194;BME280;8204;53.582;10.080;2023-08-06T08:40:22;99034.50;;;20.19;100.00
16194;BME280;8204;53.582;10.080;2023-08-06T08:42:54;99052.34;;;20.24;100.00
16194;BME280;8204;53.582;10.080;2023-08-06T08:45:22;99105.00;;;20.27;100.00
16194;BME280;8204;53.582;10.080;2023-08-06T08:47:50;99085.06;;;20.29;100.00
16194;BME280;8204;53.582;10.080;2023-08-06T08:50:16;99072.31;;;20.31;100.00
16194;BME280;8204;53.582;10.080;2023-08-06T08:52:44;99063.81;;;20.34;100.00
16194;BME280;8204;53.582;10.080;2023-08-06T08:55:13;99066.22;;;20.36;100.00
16194;BME280;8204;53.582;10.080;2023-08-06T08:57:39;99059.56;;;20.38;100.00
16194;BME280;8204;53.582;10.080;2023-08-06T09:00:05;99085.13;;;20.39;100.00
16194;BME280;8204;53.582;10.080;2023-08-06T09:02:32;99053.69;;;20.41;100.00
16194;BME280;8204;53.582;10.080;2023-08-06T09:04:59;99074.19;;;20.41;100.00
16194;BME280;8204;53.582;10.080;2023-08-06T09:07:29;99077.66;;;20.41;100.00
16194;BME280;8204;53.582;10.080;2023-08-06T09:09:57;99102.41;;;20.42;100.00
16194;BME280;8204;53.582;10.080;2023-08-06T09:12:25;99077.41;;;20.43;100.00
16194;BME280;8204;53.582;10.080;2023-08-06T09:14:52;99092.56;;;20.42;100.00
16194;BME280;8204;53.582;10.080;2023-08-06T09:17:18;99099.47;;;20.43;100.00
16194;BME280;8204;53.582;10.080;2023-08-06T09:19:47;99109.63;;;20.46;100.00
16194;BME280;8204;53.582;10.080;2023-08-06T09:22:14;99122.94;;;20.46;100.00
16194;BME280;8204;53.582;10.080;2023-08-06T09:24:41;99105.91;;;20.47;100.00
16194;BME280;8204;53.582;10.080;2023-08-06T09:27:13;99107.47;;;20.48;100.00
16194;BME280;8204;53.582;10.080;2023-08-06T09:29:41;99065.16;;;20.47;100.00
16194;BME280;8204;53.582;10.080;2023-08-06T09:32:07;99067.03;;;20.46;100.00
16194;BME280;8204;53.582;10.080;2023-08-06T09:34:32;99056.41;;;20.46;100.00
16194;BME280;8204;53.582;10.080;2023-08-06T09:36:57;99081.41;;;20.45;100.00
16194;BME280;8204;53.582;10.080;2023-08-06T09:39:27;99082.72;;;20.43;100.00
16194;BME280;8204;53.582;10.080;2023-08-06T09:42:01;99090.94;;;20.41;100.00
16194;BME280;8204;53.582;10.080;2023-08-06T09:44:29;99122.38;;;20.39;100.00
16194;BME280;8204;53.582;10.080;2023-08-06T09:47:01;99100.53;;;20.37;100.00
16194;BME280;8204;53.582;10.080;2023-08-06T09:49:28;99089.09;;;20.37;100.00
16194;BME280;8204;53.582;10.080;2023-08-06T09:52:05;99095.75;;;20.34;100.00
16194;BME280;8204;53.582;10.080;2023-08-06T09:54:32;99099.47;;;20.33;100.00
16194;BME280;8204;53.582;10.080;2023-08-06T09:56:58;99077.13;;;20.34;100.00
16194;BME280;8204;53.582;10.080;2023-08-06T09:59:24;99038.78;;;20.35;100.00
16194;BME280;8204;53.582;10.080;2023-08-06T10:01:50;99022.59;;;20.37;100.00
16194;BME280;8204;53.582;10.080;2023-08-06T10:04:16;99022.59;;;20.37;100.00
16194;BME280;8204;53.582;10.080;2023-08-06T10:06:46;99020.72;;;20.37;100.00
16194;BME280;8204;53.582;10.080;2023-08-06T10:09:12;99052.63;;;20.37;100.00
16194;BME280;8204;53.582;10.080;2023-08-06T10:11:39;99056.91;;;20.38;100.00
16194;BME280;8204;53.582;10.080;2023-08-06T10:14:28;99080.03;;;20.38;100.00
16194;BME280;8204;53.582;10.080;2023-08-06T10:16:57;99093.59;;;20.36;100.00
16194;BME280;8204;53.582;10.080;2023-08-06T10:19:25;99130.56;;;20.33;100.00
16194;BME280;8204;53.582;10.080;2023-08-06T10:22:13;99092.53;;;20.32;100.00
16194;BME280;8204;53.582;10.080;2023-08-06T10:27:19;99014.56;;;20.32;100.00
16194;BME280;8204;53.582;10.080;2023-08-06T10:29:45;98991.44;;;20.32;100.00
16194;BME280;8204;53.582;10.080;2023-08-06T10:32:10;99015.66;;;20.31;100.00
16194;BME280;8204;53.582;10.080;2023-08-06T10:34:55;99007.91;;;20.29;100.00
16194;BME280;8204;53.582;10.080;2023-08-06T10:37:22;98966.41;;;20.28;100.00
16194;BME280;8204;53.582;10.080;2023-08-06T10:39:51;98968.28;;;20.28;100.00
16194;BME280;8204;53.582;10.080;2023-08-06T10:42:27;98981.84;;;20.26;100.00
16194;BME280;8204;53.582;10.080;2023-08-06T10:45:17;98953.91;;;20.24;100.00
16194;BME280;8204;53.582;10.080;2023-08-06T10:47:43;98941.66;;;20.23;100.00
16194;BME280;8204;53.582;10.080;2023-08-06T10:50:12;98941.91;;;20.21;100.00
16194;BME280;8204;53.582;10.080;2023-08-06T10:52:39;98932.38;;;20.20;100.00
16194;BME280;8204;53.582;10.080;2023-08-06T10:55:05;98912.41;;;20.23;100.00
16194;BME280;8204;53.582;10.080;2023-08-06T10:57:31;98880.22;;;20.24;100.00
16194;BME280;8204;53.582;10.080;2023-08-06T10:59:57;98878.34;;;20.25;100.00
16194;BME280;8204;53.582;10.080;2023-08-06T11:02:22;98849.63;;;20.27;100.00
16194;BME280;8204;53.582;10.080;2023-08-06T11:04:48;98877.28;;;20.26;100.00
16194;BME280;8204;53.582;10.080;2023-08-06T11:07:14;98886.09;;;20.26;100.00
16194;BME280;8204;53.582;10.080;2023-08-06T11:09:40;98916.94;;;20.27;100.00
16194;BME280;8204;53.582;10.080;2023-08-06T11:12:11;98949.09;;;20.26;100.00
16194;BME280;8204;53.582;10.080;2023-08-06T11:14:37;98976.53;;;20.26;100.00
16194;BME280;8204;53.582;10.080;2023-08-06T11:17:05;98950.16;;;20.25;100.00
16194;BME280;8204;53.582;10.080;2023-08-06T11:19:31;98961.63;;;20.25;100.00
16194;BME280;8204;53.582;10.080;2023-08-06T11:21:57;98958.16;;;20.25;100.00
16194;BME280;8204;53.582;10.080;2023-08-06T11:24:26;98964.28;;;20.25;100.00
16194;BME280;8204;53.582;10.080;2023-08-06T11:26:52;98921.72;;;20.25;100.00
16194;BME280;8204;53.582;10.080;2023-08-06T11:29:18;98892.19;;;20.27;100.00
16194;BME280;8204;53.582;10.080;2023-08-06T11:31:46;98927.03;;;20.25;100.00
16194;BME280;8204;53.582;10.080;2023-08-06T11:34:12;98928.66;;;20.26;100.00
16194;BME280;8204;53.582;10.080;2023-08-06T11:36:40;98894.06;;;20.26;100.00
16194;BME280;8204;53.582;10.080;2023-08-06T11:39:08;98880.75;;;20.26;100.00
16194;BME280;8204;53.582;10.080;2023-08-06T11:41:36;98895.13;;;20.25;100.00
16194;BME280;8204;53.582;10.080;2023-08-06T11:44:03;98889.81;;;20.25;100.00
16194;BME280;8204;53.582;10.080;2023-08-06T11:49:45;98907.38;;;20.26;100.00
16194;BME280;8204;53.582;10.080;2023-08-06T11:52:21;98919.34;;;20.24;100.00
16194;BME280;8204;53.582;10.080;2023-08-06T11:55:05;98886.59;;;20.23;100.00
16194;BME280;8204;53.582;10.080;2023-08-06T11:57:36;98844.03;;;20.23;100.00
16194;BME280;8204;53.582;10.080;2023-08-06T12:00:06;98866.38;;;20.22;100.00
16194;BME280;8204;53.582;10.080;2023-08-06T12:02:39;98888.72;;;20.21;100.00
16194;BME280;8204;53.582;10.080;2023-08-06T12:05:14;98858.41;;;20.22;100.00
16194;BME280;8204;53.582;10.080;2023-08-06T12:07:45;98853.63;;;20.24;100.00
16194;BME280;8204;53.582;10.080;2023-08-06T12:10:13;98871.97;;;20.26;100.00
16194;BME280;8204;53.582;10.080;2023-08-06T12:12:41;98905.75;;;20.25;100.00
16194;BME280;8204;53.582;10.080;2023-08-06T12:15:08;98918.78;;;20.27;100.00
16194;BME280;8204;53.582;10.080;2023-08-06T12:17:35;98895.94;;;20.31;100.00
16194;BME280;8204;53.582;10.080;2023-08-06T12:20:00;98888.47;;;20.33;100.00
16194;BME280;8204;53.582;10.080;2023-08-06T12:22:26;98877.03;;;20.37;100.00
16194;BME280;8204;53.582;10.080;2023-08-06T12:24:52;98899.38;;;20.41;100.00
16194;BME280;8204;53.582;10.080;2023-08-06T12:27:18;98916.69;;;20.44;100.00
16194;BME280;8204;53.582;10.080;2023-08-06T12:29:47;98889.25;;;20.48;100.00
16194;BME280;8204;53.582;10.080;2023-08-06T12:32:13;98891.41;;;20.51;100.00
16194;BME280;8204;53.582;10.080;2023-08-06T12:34:39;98942.50;;;20.53;100.00
16194;BME280;8204;53.582;10.080;2023-08-06T12:37:06;98943.84;;;20.55;100.00
16194;BME280;8204;53.582;10.080;2023-08-06T12:39:36;98952.34;;;20.57;100.00
16194;BME280;8204;53.582;10.080;2023-08-06T12:42:04;98952.88;;;20.59;100.00
16194;BME280;8204;53.582;10.080;2023-08-06T12:44:31;98968.84;;;20.59;100.00
16194;BME280;8204;53.582;10.080;2023-08-06T12:46:57;98982.97;;;20.60;100.00
16194;BME280;8204;53.582;10.080;2023-08-06T12:49:25;98980.31;;;20.60;100.00
16194;BME280;8204;53.582;10.080;2023-08-06T12:51:52;98970.19;;;20.62;100.00
16194;BME280;8204;53.582;10.080;2023-08-06T12:54:20;98945.69;;;20.65;100.00
16194;BME280;8204;53.582;10.080;2023-08-06T12:56:47;98903.09;;;20.70;100.00
16194;BME280;8204;53.582;10.080;2023-08-06T12:59:16;98919.91;;;20.75;100.00